Time,TemperatureF,DewpointF,PressureIn,WindDirection,WindDirectionDegrees,WindSpeedMPH,WindSpeedGustMPH,Humidity,HourlyPrecipIn,Conditions,Clouds,dailyrainin,SolarRadiationWatts/m^2,SoftwareType,DateUTC
2013-03-11 00:13:00,48.8,46.0,30.30,West,260,5.0,5.0,89,0.00,,,0.00,0,weatherlink.com 1.10,2013-03-11 07:13:00,
2013-03-11 00:28:00,48.6,46.0,30.30,West,272,1.0,6.0,89,0.00,,,0.00,0,weatherlink.com 1.10,2013-03-11 07:28:00,
2013-03-11 00:43:00,48.6,46.0,30.30,West,266,2.0,7.0,90,0.00,,,0.00,0,weatherlink.com 1.10,2013-03-11 07:43:00,
2013-03-11 00:58:00,48.5,46.0,30.30,WSW,256,3.0,5.0,90,0.00,,,0.00,0,weatherlink.com 1.10,2013-03-11 07:58:00,
2013-03-11 01:13:00,48.5,46.0,30.30,NW,306,0.0,4.0,91,0.00,,,0.00,0,weatherlink.com 1.10,2013-03-11 08:13:00,
2013-03-11 01:28:00,48.3,46.0,30.30,WSW,252,3.0,8.0,91,0.00,,,0.00,0,weatherlink.com 1.10,2013-03-11 08:28:00,
2013-03-11 01:43:00,48.2,46.0,30.29,WNW,286,1.0,5.0,91,0.00,,,0.00,0,weatherlink.com 1.10,2013-03-11 08:43:00,
2013-03-11 01:58:00,48.1,46.0,30.30,West,270,0.0,4.0,91,0.00,,,0.00,0,weatherlink.com 1.10,2013-03-11 08:58:00,
2013-03-11 02:13:00,48.0,46.0,30.30,West,270,1.0,3.0,91,0.00,,,0.00,0,weatherlink.com 1.10,2013-03-11 09:13:00,
2013-03-11 02:28:00,47.9,46.0,30.30,NW,316,0.0,6.0,91,0.00,,,0.00,0,weatherlink.com 1.10,2013-03-11 09:28:00,
2013-03-11 02:43:00,47.9,46.0,30.30,West,275,4.0,6.0,91,0.00,,,0.00,0,weatherlink.com 1.10,2013-03-11 09:43:00,
2013-03-11 02:59:00,47.7,45.0,30.29,SW,214,5.0,7.0,91,0.00,,,0.00,0,weatherlink.com 1.10,2013-03-11 09:59:00,
2013-03-11 03:14:00,47.7,45.0,30.29,NNW,337,1.0,4.0,91,0.00,,,0.00,0,weatherlink.com 1.10,2013-03-11 10:14:00,
2013-03-11 03:29:00,47.6,45.0,30.29,West,278,0.0,3.0,92,0.00,,,0.00,0,weatherlink.com 1.10,2013-03-11 10:29:00,
2013-03-11 03:44:00,47.4,45.0,30.28,West,278,2.0,3.0,92,0.00,,,0.00,0,weatherlink.com 1.10,2013-03-11 10:44:00,
2013-03-11 03:59:00,47.3,45.0,30.28,West,278,0.0,3.0,91,0.00,,,0.00,0,weatherlink.com 1.10,2013-03-11 10:59:00,
2013-03-11 04:14:00,47.4,45.0,30.27,West,278,0.0,3.0,91,0.00,,,0.00,0,weatherlink.com 1.10,2013-03-11 11:14:00,
2013-03-11 04:29:00,47.3,45.0,30.27,West,278,0.0,0.0,91,0.00,,,0.00,0,weatherlink.com 1.10,2013-03-11 11:29:00,
2013-03-11 04:44:00,47.3,45.0,30.27,West,278,0.0,0.0,91,0.00,,,0.00,0,weatherlink.com 1.10,2013-03-11 11:44:00,
2013-03-11 04:59:00,47.3,45.0,30.28,West,278,0.0,0.0,90,0.00,,,0.00,0,weatherlink.com 1.10,2013-03-11 11:59:00,
2013-03-11 05:14:00,47.3,45.0,30.27,West,278,0.0,0.0,90,0.00,,,0.00,0,weatherlink.com 1.10,2013-03-11 12:14:00,
2013-03-11 05:29:00,47.4,45.0,30.27,West,278,0.0,0.0,90,0.00,,,0.00,0,weatherlink.com 1.10,2013-03-11 12:29:00,
2013-03-11 05:44:00,47.3,44.0,30.27,West,278,0.0,0.0,89,0.00,,,0.00,0,weatherlink.com 1.10,2013-03-11 12:44:00,
2013-03-11 05:59:00,47.3,44.0,30.28,West,278,0.0,0.0,89,0.00,,,0.00,0,weatherlink.com 1.10,2013-03-11 12:59:00,
2013-03-11 06:14:00,47.3,44.0,30.28,West,278,0.0,0.0,88,0.00,,,0.00,0,weatherlink.com 1.10,2013-03-11 13:14:00,
2013-03-11 06:29:00,47.4,44.0,30.28,West,278,0.0,0.0,88,0.00,,,0.00,0,weatherlink.com 1.10,2013-03-11 13:29:00,
2013-03-11 06:44:00,47.7,44.0,30.28,West,278,0.0,0.0,87,0.00,,,0.00,0,weatherlink.com 1.10,2013-03-11 13:44:00,
2013-03-11 06:59:00,48.3,45.0,30.28,West,278,0.0,0.0,89,0.00,,,0.00,0,weatherlink.com 1.10,2013-03-11 13:59:00,
2013-03-11 07:14:00,48.5,46.0,30.28,West,278,0.0,2.0,90,0.00,,,0.00,0,weatherlink.com 1.10,2013-03-11 14:14:00,
2013-03-11 07:29:00,48.7,46.0,30.29,West,278,0.0,0.0,91,0.00,,,0.00,7,weatherlink.com 1.10,2013-03-11 14:29:00,
2013-03-11 07:44:00,48.8,46.0,30.29,West,278,0.0,1.0,91,0.00,,,0.00,19,weatherlink.com 1.10,2013-03-11 14:44:00,
2013-03-11 07:59:00,48.9,46.0,30.29,West,278,0.0,1.0,90,0.00,,,0.00,44,weatherlink.com 1.10,2013-03-11 14:59:00,
2013-03-11 08:14:00,49.7,47.0,30.29,West,278,0.0,1.0,90,0.00,,,0.00,93,weatherlink.com 1.10,2013-03-11 15:14:00,
2013-03-11 08:29:00,50.6,47.0,30.29,West,278,1.0,2.0,88,0.00,,,0.00,151,weatherlink.com 1.10,2013-03-11 15:29:00,
2013-03-11 08:44:00,51.3,47.0,30.29,ESE,123,0.0,3.0,86,0.00,,,0.00,204,weatherlink.com 1.10,2013-03-11 15:44:00,
2013-03-11 08:59:00,52.0,47.0,30.29,SE,130,0.0,2.0,84,0.00,,,0.00,236,weatherlink.com 1.10,2013-03-11 15:59:00,
2013-03-11 09:14:00,53.2,48.0,30.29,SE,131,0.0,2.0,81,0.00,,,0.00,288,weatherlink.com 1.10,2013-03-11 16:14:00,
2013-03-11 09:29:00,53.7,48.0,30.29,East,98,0.0,3.0,80,0.00,,,0.00,343,weatherlink.com 1.10,2013-03-11 16:29:00,
2013-03-11 09:44:00,53.7,48.0,30.29,SE,146,1.0,3.0,80,0.00,,,0.00,387,weatherlink.com 1.10,2013-03-11 16:44:00,
2013-03-11 09:59:00,55.1,48.0,30.29,SSW,195,0.0,3.0,78,0.00,,,0.00,436,weatherlink.com 1.10,2013-03-11 16:59:00,
2013-03-11 10:15:00,55.7,48.0,30.29,SSW,195,0.0,3.0,75,0.00,,,0.00,478,weatherlink.com 1.10,2013-03-11 17:15:00,
2013-03-11 10:30:00,56.1,48.0,30.28,East,101,0.0,3.0,75,0.00,,,0.00,492,weatherlink.com 1.10,2013-03-11 17:30:00,
2013-03-11 10:45:00,58.3,49.0,30.28,SE,129,1.0,2.0,70,0.00,,,0.00,520,weatherlink.com 1.10,2013-03-11 17:45:00,
2013-03-11 11:00:00,59.8,49.0,30.28,East,83,0.0,2.0,68,0.00,,,0.00,589,weatherlink.com 1.10,2013-03-11 18:00:00,
2013-03-11 11:15:00,61.0,49.0,30.28,ESE,108,0.0,3.0,65,0.00,,,0.00,619,weatherlink.com 1.10,2013-03-11 18:15:00,
2013-03-11 11:30:00,62.7,48.0,30.28,West,266,0.0,4.0,60,0.00,,,0.00,659,weatherlink.com 1.10,2013-03-11 18:30:00,
2013-03-11 11:45:00,64.0,48.0,30.27,NNW,329,2.0,3.0,56,0.00,,,0.00,686,weatherlink.com 1.10,2013-03-11 18:45:00,
2013-03-11 12:00:00,65.6,47.0,30.27,NNE,27,1.0,3.0,52,0.00,,,0.00,708,weatherlink.com 1.10,2013-03-11 19:00:00,
2013-03-11 12:15:00,65.5,45.0,30.26,North,2,0.0,5.0,48,0.00,,,0.00,733,weatherlink.com 1.10,2013-03-11 19:15:00,
2013-03-11 12:30:00,65.5,44.0,30.26,North,2,1.0,4.0,46,0.00,,,0.00,758,weatherlink.com 1.10,2013-03-11 19:30:00,
2013-03-11 12:45:00,66.6,45.0,30.25,NNW,343,2.0,5.0,46,0.00,,,0.00,749,weatherlink.com 1.10,2013-03-11 19:45:00,
2013-03-11 13:00:00,67.7,44.0,30.24,WSW,238,2.0,3.0,42,0.00,,,0.00,773,weatherlink.com 1.10,2013-03-11 20:00:00,
2013-03-11 13:15:00,69.7,44.0,30.23,SSE,162,0.0,2.0,40,0.00,,,0.00,779,weatherlink.com 1.10,2013-03-11 20:15:00,
2013-03-11 13:30:00,71.5,44.0,30.23,West,269,4.0,4.0,37,0.00,,,0.00,761,weatherlink.com 1.10,2013-03-11 20:30:00,
2013-03-11 13:45:00,71.0,43.0,30.22,West,264,0.0,4.0,36,0.00,,,0.00,780,weatherlink.com 1.10,2013-03-11 20:45:00,
2013-03-11 14:00:00,69.2,46.0,30.22,WNW,293,6.0,10.0,44,0.00,,,0.00,763,weatherlink.com 1.10,2013-03-11 21:00:00,
2013-03-11 14:15:00,64.7,46.0,30.22,West,262,2.0,10.0,52,0.00,,,0.00,751,weatherlink.com 1.10,2013-03-11 21:15:00,
2013-03-11 14:30:00,65.0,46.0,30.21,WSW,238,3.0,14.0,50,0.00,,,0.00,751,weatherlink.com 1.10,2013-03-11 21:30:00,
2013-03-11 14:45:00,64.2,45.0,30.21,WNW,292,6.0,12.0,50,0.00,,,0.00,731,weatherlink.com 1.10,2013-03-11 21:45:00,
2013-03-11 15:00:00,62.9,43.0,30.20,SW,214,4.0,16.0,49,0.00,,,0.00,707,weatherlink.com 1.10,2013-03-11 22:00:00,
2013-03-11 15:16:00,62.9,43.0,30.20,West,262,4.0,13.0,48,0.00,,,0.00,675,weatherlink.com 1.10,2013-03-11 22:16:00,
2013-03-11 15:31:00,61.5,43.0,30.20,West,274,6.0,14.0,50,0.00,,,0.00,647,weatherlink.com 1.10,2013-03-11 22:31:00,
2013-03-11 15:46:00,63.0,44.0,30.19,WSW,247,4.0,12.0,51,0.00,,,0.00,624,weatherlink.com 1.10,2013-03-11 22:46:00,
2013-03-11 16:01:00,62.3,44.0,30.19,SSW,207,3.0,13.0,52,0.00,,,0.00,584,weatherlink.com 1.10,2013-03-11 23:01:00,
2013-03-11 16:16:00,62.2,43.0,30.19,West,262,5.0,14.0,50,0.00,,,0.00,541,weatherlink.com 1.10,2013-03-11 23:16:00,
2013-03-11 16:31:00,62.4,43.0,30.18,West,272,5.0,13.0,49,0.00,,,0.00,494,weatherlink.com 1.10,2013-03-11 23:31:00,
2013-03-11 16:46:00,61.8,43.0,30.19,WSW,241,3.0,16.0,50,0.00,,,0.00,454,weatherlink.com 1.10,2013-03-11 23:46:00,
2013-03-11 17:01:00,60.1,44.0,30.18,WNW,287,5.0,12.0,56,0.00,,,0.00,404,weatherlink.com 1.10,2013-03-12 00:01:00,
2013-03-11 17:31:00,61.5,45.0,30.16,SSW,201,3.0,9.0,55,0.00,,,0.00,283,weatherlink.com 1.10,2013-03-12 00:31:00,
2013-03-11 19:16:00,51.4,47.0,30.15,WNW,289,2.0,10.0,86,0.00,,,0.00,0,weatherlink.com 1.10,2013-03-12 02:16:00,
2013-03-11 20:01:00,50.7,47.0,30.16,SW,225,5.0,11.0,88,0.00,,,0.00,0,weatherlink.com 1.10,2013-03-12 03:01:00,
2013-03-11 20:31:00,50.4,47.0,30.16,West,259,0.0,10.0,89,0.00,,,0.00,0,weatherlink.com 1.10,2013-03-12 03:31:00,
2013-03-11 21:01:00,50.4,47.0,30.16,West,262,0.0,7.0,89,0.00,,,0.00,0,weatherlink.com 1.10,2013-03-12 04:01:00,
2013-03-11 21:16:00,50.6,48.0,30.16,WNW,292,4.0,6.0,89,0.00,,,0.00,0,weatherlink.com 1.10,2013-03-12 04:16:00,
2013-03-11 21:31:00,50.6,48.0,30.16,West,276,3.0,7.0,89,0.00,,,0.00,0,weatherlink.com 1.10,2013-03-12 04:31:00,
2013-03-11 21:46:00,50.3,47.0,30.17,WSW,245,2.0,9.0,89,0.00,,,0.00,0,weatherlink.com 1.10,2013-03-12 04:46:00,
2013-03-11 22:01:00,50.3,47.0,30.17,West,264,2.0,8.0,89,0.00,,,0.00,0,weatherlink.com 1.10,2013-03-12 05:01:00,
2013-03-11 22:16:00,50.5,47.0,30.17,West,277,0.0,6.0,89,0.00,,,0.00,0,weatherlink.com 1.10,2013-03-12 05:16:00,
2013-03-11 22:31:00,50.6,48.0,30.16,NW,312,0.0,6.0,89,0.00,,,0.00,0,weatherlink.com 1.10,2013-03-12 05:31:00,
2013-03-11 22:46:00,50.6,48.0,30.16,West,278,2.0,5.0,89,0.00,,,0.00,0,weatherlink.com 1.10,2013-03-12 05:46:00,
2013-03-11 23:01:00,50.5,47.0,30.17,West,264,2.0,7.0,89,0.00,,,0.00,0,weatherlink.com 1.10,2013-03-12 06:01:00,
2013-03-11 23:16:00,50.3,47.0,30.17,West,261,4.0,6.0,89,0.00,,,0.00,0,weatherlink.com 1.10,2013-03-12 06:16:00,
2013-03-11 23:31:00,50.2,47.0,30.17,SW,221,0.0,4.0,90,0.00,,,0.00,0,weatherlink.com 1.10,2013-03-12 06:31:00,
2013-03-11 23:46:00,50.3,48.0,30.17,WNW,293,1.0,5.0,90,0.00,,,0.00,0,weatherlink.com 1.10,2013-03-12 06:46:00,